KLOL/LOL METAR and TAF weather

Enter ICAO airport designator
Station Type Date Time Source
KLOL METAR 2022/06/28 07:53 UTC NOAA

KLOL 280753Z AUTO 08004KT 10SM CLR 21/M05 A3015 RMK AO2 SLP161 T02111050 403780150


Station Type Date Time Source
KLOL Decoded METAR 2022/06/28 07:53 UTC NOAA

LOVELOCK DERBY FIELD, NV, United States (KLOL) 40-04N 118-34W 1189M
Jun 28, 2022 - 03:53 AM EDT / 2022.06.28 0753 UTC
Wind: from the E (080 degrees) at 5 MPH (4 KT):0
Visibility: 10 mile(s):0
Sky conditions: clear
Temperature: 70.0 F (21.1 C)
Dew Point: 23.0 F (-5.0 C)
Relative Humidity: 16%
Pressure (altimeter): 30.15 in. Hg (1020 hPa)
ob: KLOL 280753Z AUTO 08004KT 10SM CLR 21/M05 A3015 RMK AO2 SLP161 T02111050 403780150
cycle: 8

Station Type Date Time Source
KLOL TAF 2010/01/05 05:22 UTC NOAA

TAF KLOL 050522Z 0506/0606 00000KT 1/4SM FZFG VV001
FM052000 VRB03KT 3SM BR OVC002
AMD NOT SKED

Example: see airport list